Time;durP1;ratioP1;P1;durP2;ratioP2;P2;SDS_P1;SDS_P2;PMS_P1;PMS_P2;Temp;Humidity;BMP_temperature;BMP_pressure;BME280_temperature;BME280_humidity;BME280_pressure;Samples;Min_cycle;Max_cycle;Signal;HPM_P1;HPM_P2
2022/12/23 00:01:15;;;;;;;2.10;1.08;;;21.40;50.20;;;;;;5045636;28;20166;-69
2022/12/23 00:03:41;;;;;;;1.60;0.90;;;21.40;50.20;;;;;;5053516;28;20025;-68
2022/12/23 00:06:12;;;;;;;2.00;0.90;;;21.40;50.70;;;;;;5051900;28;20356;-68
2022/12/23 00:08:38;;;;;;;2.53;1.00;;;21.40;50.30;;;;;;5048805;28;20033;-68
2022/12/23 00:11:08;;;;;;;1.65;0.80;;;21.40;50.30;;;;;;5050595;28;20028;-68
2022/12/23 00:16:18;;;;;;;1.50;0.77;;;21.30;50.30;;;;;;5050180;28;20109;-68
2022/12/23 00:18:44;;;;;;;1.33;0.80;;;21.30;50.40;;;;;;5039856;28;20544;-68
2022/12/23 00:21:15;;;;;;;2.22;1.02;;;21.30;50.40;;;;;;5051656;28;20064;-67
2022/12/23 00:23:44;;;;;;;1.67;0.90;;;21.30;50.40;;;;;;5054494;28;20131;-70
2022/12/23 00:26:25;;;;;;;1.90;0.82;;;21.30;50.50;;;;;;5052321;28;20507;-69
2022/12/23 00:28:51;;;;;;;1.40;0.80;;;21.30;50.50;;;;;;5047310;28;20029;-68
2022/12/23 00:31:18;;;;;;;1.58;0.90;;;21.30;50.50;;;;;;5058185;28;20045;-68
2022/12/23 00:33:45;;;;;;;1.80;0.70;;;21.20;50.50;;;;;;5054113;28;20044;-68
2022/12/23 00:36:17;;;;;;;1.08;0.70;;;21.20;50.50;;;;;;5046509;28;20401;-68
2022/12/23 00:44:11;;;;;;;1.67;0.80;;;21.20;50.60;;;;;;5060639;28;20448;-68
2022/12/23 00:46:36;;;;;;;1.50;0.90;;;21.20;50.60;;;;;;5045792;28;20055;-68
2022/12/23 00:51:47;;;;;;;1.70;0.70;;;21.10;50.60;;;;;;5052537;28;20101;-69
2022/12/23 00:54:12;;;;;;;1.23;0.70;;;21.10;50.60;;;;;;5049948;28;20103;-68
2022/12/23 00:56:38;;;;;;;1.42;0.85;;;21.10;50.70;;;;;;5040273;28;20029;-68
2022/12/23 00:59:04;;;;;;;1.02;0.77;;;21.10;50.70;;;;;;5058033;28;20112;-69
2022/12/23 01:07:00;;;;;;;1.73;0.88;;;21.00;50.70;;;;;;5046247;28;20028;-68
2022/12/23 01:09:26;;;;;;;2.03;0.77;;;21.00;50.70;;;;;;5045118;28;20499;-68
2022/12/23 01:11:53;;;;;;;1.58;0.80;;;21.00;50.70;;;;;;5060528;28;20021;-70
2022/12/23 01:14:19;;;;;;;2.83;0.77;;;21.00;50.80;;;;;;5055198;28;20021;-68
2022/12/23 01:16:45;;;;;;;2.00;0.75;;;21.00;50.80;;;;;;5046511;28;20040;-69
2022/12/23 01:19:11;;;;;;;2.00;0.80;;;21.00;51.00;;;;;;5047665;28;20388;-68
2022/12/23 01:21:36;;;;;;;1.38;0.80;;;21.00;50.80;;;;;;5047670;28;20053;-68
2022/12/23 01:24:02;;;;;;;1.63;0.77;;;20.90;50.80;;;;;;5043573;28;20472;-68
2022/12/23 01:26:28;;;;;;;1.00;0.70;;;21.00;50.90;;;;;;5045834;28;20187;-69
2022/12/23 01:28:55;;;;;;;1.30;0.70;;;20.90;50.80;;;;;;5058041;28;20383;-68
2022/12/23 01:31:21;;;;;;;1.27;0.68;;;20.90;50.90;;;;;;5037723;28;20036;-68
2022/12/23 01:33:47;;;;;;;1.33;0.77;;;20.90;50.90;;;;;;5048476;28;20184;-68
2022/12/23 01:36:13;;;;;;;1.02;0.60;;;20.90;50.90;;;;;;5057342;28;20474;-68
2022/12/23 01:38:39;;;;;;;1.98;0.68;;;20.90;51.00;;;;;;5053559;28;20106;-68
2022/12/23 01:41:05;;;;;;;1.13;0.70;;;20.90;51.00;;;;;;5052349;28;20471;-68
2022/12/23 01:43:48;;;;;;;1.40;0.63;;;20.80;51.00;;;;;;5032667;28;20464;-69
2022/12/23 01:46:14;;;;;;;1.55;0.82;;;20.80;51.00;;;;;;5046405;28;20078;-69
2022/12/23 01:48:44;;;;;;;1.10;0.60;;;20.80;51.00;;;;;;5050999;28;20033;-68
2022/12/23 01:51:18;;;;;;;1.70;0.73;;;20.80;51.10;;;;;;5049064;28;20017;-69
2022/12/23 01:53:48;;;;;;;0.93;0.60;;;20.80;51.00;;;;;;5036126;28;20025;-68
2022/12/23 01:56:42;;;;;;;1.20;0.70;;;20.80;51.10;;;;;;5058043;28;20448;-68
2022/12/23 02:03:40;;;;;;;1.35;0.70;;;20.80;51.10;;;;;;5049550;28;20044;-68
2022/12/23 02:04:46;;;;;;;0.73;0.60;;;20.70;51.10;;;;;;5050445;28;20039;-68
2022/12/23 02:09:57;;;;;;;1.00;0.70;;;20.70;51.10;;;;;;5057331;28;20514;-69
2022/12/23 02:12:31;;;;;;;1.45;0.60;;;20.70;51.10;;;;;;5051239;28;20029;-69
2022/12/23 02:18:38;;;;;;;1.60;0.82;;;20.70;51.20;;;;;;5048077;28;20029;-69
2022/12/23 02:21:22;;;;;;;1.20;0.52;;;20.70;51.20;;;;;;5046764;28;20112;-68
2022/12/23 02:24:12;;;;;;;0.85;0.60;;;20.70;51.20;;;;;;5035428;28;20079;-67
2022/12/23 02:27:15;;;;;;;1.30;0.70;;;20.70;51.30;;;;;;5053754;28;20043;-69
2022/12/23 02:30:02;;;;;;;1.45;0.65;;;20.60;51.30;;;;;;5006675;28;20566;-68
2022/12/23 02:32:52;;;;;;;0.85;0.60;;;20.60;51.30;;;;;;5049097;28;20024;-69
2022/12/23 02:35:42;;;;;;;0.57;0.55;;;20.60;51.30;;;;;;5053124;28;20064;-69
2022/12/23 02:38:16;;;;;;;0.77;0.60;;;20.60;51.30;;;;;;5055458;28;20071;-70
2022/12/23 02:40:54;;;;;;;1.02;0.60;;;20.60;51.30;;;;;;5053801;28;20069;-69
2022/12/23 02:43:45;;;;;;;1.60;0.80;;;20.60;51.40;;;;;;5049953;28;20504;-69
2022/12/23 02:46:26;;;;;;;0.90;0.52;;;20.50;51.30;;;;;;5045672;28;20025;-69
2022/12/23 02:49:08;;;;;;;1.02;0.70;;;20.50;51.30;;;;;;5056313;28;20029;-69
2022/12/23 02:51:39;;;;;;;1.17;0.60;;;20.50;51.50;;;;;;5051909;28;20025;-69
2022/12/23 02:54:09;;;;;;;0.63;0.50;;;20.50;51.40;;;;;;5053262;28;20040;-68
2022/12/23 02:56:38;;;;;;;0.93;0.50;;;20.50;51.40;;;;;;5049791;28;20024;-68
2022/12/23 02:59:11;;;;;;;0.95;0.60;;;20.50;51.40;;;;;;5048995;28;20025;-69
2022/12/23 03:01:38;;;;;;;0.85;0.60;;;20.50;51.40;;;;;;5049453;28;20029;-69
2022/12/23 03:04:04;;;;;;;1.27;0.57;;;20.50;51.40;;;;;;5052776;28;20107;-69
2022/12/23 03:06:40;;;;;;;1.67;0.73;;;20.50;51.50;;;;;;5049884;28;20037;-69
2022/12/23 03:09:06;;;;;;;0.65;0.50;;;20.50;51.50;;;;;;5050222;28;20108;-68
2022/12/23 03:12:04;;;;;;;0.65;0.60;;;20.50;51.50;;;;;;5052498;28;20112;-68
2022/12/23 03:15:02;;;;;;;1.35;0.68;;;20.40;51.40;;;;;;5053287;28;20373;-68
2022/12/23 03:17:56;;;;;;;1.17;0.65;;;20.40;51.50;;;;;;5055528;28;20053;-69
2022/12/23 03:20:37;;;;;;;1.08;0.60;;;20.40;51.50;;;;;;5053478;28;20044;-68
2022/12/23 03:23:16;;;;;;;0.95;0.60;;;20.40;51.50;;;;;;5037724;28;20025;-69
2022/12/23 03:25:52;;;;;;;1.05;0.65;;;20.40;51.50;;;;;;5052887;28;20027;-68
2022/12/23 03:28:38;;;;;;;0.73;0.50;;;20.40;51.50;;;;;;5031811;28;20147;-69
2022/12/23 03:31:08;;;;;;;0.73;0.60;;;20.40;51.60;;;;;;5056155;28;20103;-68
2022/12/23 03:33:39;;;;;;;0.60;0.50;;;20.40;51.60;;;;;;5055902;28;20120;-69
2022/12/23 03:36:28;;;;;;;0.88;0.50;;;20.40;51.50;;;;;;5050007;28;20480;-68
2022/12/23 03:38:56;;;;;;;0.43;0.40;;;20.40;51.60;;;;;;5055467;28;20512;-69
2022/12/23 03:41:32;;;;;;;0.77;0.50;;;20.40;51.60;;;;;;5051803;28;20547;-69
2022/12/23 03:44:09;;;;;;;0.93;0.63;;;20.30;51.50;;;;;;5060860;28;20100;-69
2022/12/23 03:46:41;;;;;;;0.90;0.60;;;20.40;51.60;;;;;;5051078;28;20025;-71
2022/12/23 03:49:14;;;;;;;1.23;0.77;;;20.30;51.50;;;;;;5046566;28;20531;-68
2022/12/23 03:51:52;;;;;;;1.02;0.60;;;20.30;51.50;;;;;;5042904;28;20071;-69
2022/12/23 03:54:26;;;;;;;0.43;0.40;;;20.30;51.50;;;;;;5054659;28;20033;-69
2022/12/23 03:57:02;;;;;;;0.70;0.50;;;20.30;51.50;;;;;;5052008;28;20128;-69
2022/12/23 03:59:32;;;;;;;0.60;0.50;;;20.30;51.60;;;;;;5052174;28;20035;-69
2022/12/23 04:02:16;;;;;;;0.60;0.47;;;20.30;51.50;;;;;;5052952;28;20014;-69
2022/12/23 04:05:02;;;;;;;0.95;0.50;;;20.30;51.60;;;;;;5055942;28;20033;-69
2022/12/23 04:07:36;;;;;;;1.10;0.70;;;20.30;51.60;;;;;;5024708;28;20017;-69
2022/12/23 04:10:03;;;;;;;0.52;0.50;;;20.30;51.60;;;;;;5039268;28;20025;-69
2022/12/23 04:12:30;;;;;;;0.80;0.50;;;20.30;51.60;;;;;;5054466;28;20025;-69
2022/12/23 04:14:55;;;;;;;0.65;0.50;;;20.30;51.60;;;;;;5050017;28;20388;-69
2022/12/23 04:17:21;;;;;;;0.43;0.40;;;20.30;51.60;;;;;;5053125;28;20021;-69
2022/12/23 04:19:47;;;;;;;0.85;0.50;;;20.30;51.70;;;;;;5060883;28;20032;-69
2022/12/23 04:22:14;;;;;;;0.75;0.50;;;20.30;51.70;;;;;;5040574;28;20499;-69
2022/12/23 04:24:40;;;;;;;1.30;0.50;;;20.30;51.70;;;;;;5054359;28;20100;-69
2022/12/23 04:27:08;;;;;;;0.75;0.40;;;20.30;51.70;;;;;;5053442;28;20017;-69
2022/12/23 04:29:34;;;;;;;0.40;0.40;;;20.30;51.70;;;;;;5053549;28;20025;-70
2022/12/23 04:31:59;;;;;;;0.63;0.50;;;20.20;51.70;;;;;;5058017;28;20028;-69
2022/12/23 04:34:25;;;;;;;0.80;0.63;;;20.20;51.70;;;;;;5042825;28;20021;-69
2022/12/23 04:36:50;;;;;;;0.50;0.50;;;20.20;51.70;;;;;;5052932;28;20029;-69
2022/12/23 04:39:16;;;;;;;0.50;0.40;;;20.20;51.70;;;;;;5058990;28;20100;-70
2022/12/23 04:41:41;;;;;;;0.60;0.52;;;20.20;51.70;;;;;;5056739;28;20039;-69
2022/12/23 04:44:07;;;;;;;0.60;0.45;;;20.20;51.80;;;;;;5050034;28;20059;-68
2022/12/23 04:46:33;;;;;;;0.40;0.40;;;20.20;51.80;;;;;;5060884;28;20052;-69
2022/12/23 04:48:58;;;;;;;1.08;0.57;;;20.20;51.80;;;;;;5053246;28;20029;-69
2022/12/23 04:51:24;;;;;;;0.40;0.40;;;20.20;51.80;;;;;;5054207;28;20032;-69
2022/12/23 04:53:50;;;;;;;0.85;0.50;;;20.20;51.80;;;;;;5052492;28;20061;-69
2022/12/23 04:56:15;;;;;;;0.35;0.35;;;20.20;51.80;;;;;;5048293;28;20025;-68
2022/12/23 04:58:41;;;;;;;0.75;0.50;;;20.20;51.90;;;;;;5050423;28;20032;-68
2022/12/23 05:01:09;;;;;;;0.65;0.50;;;20.20;51.90;;;;;;5044379;28;20083;-69
2022/12/23 05:03:35;;;;;;;0.65;0.45;;;20.20;51.90;;;;;;5057853;28;20533;-69
2022/12/23 05:06:01;;;;;;;0.40;0.40;;;20.20;51.90;;;;;;5052125;28;20033;-69
2022/12/23 05:08:26;;;;;;;0.68;0.50;;;20.10;51.90;;;;;;5052567;28;20052;-69
2022/12/23 05:10:52;;;;;;;0.45;0.40;;;20.20;52.00;;;;;;5051274;28;20033;-69
2022/12/23 05:13:18;;;;;;;0.57;0.50;;;20.20;52.00;;;;;;5053496;28;20079;-69
2022/12/23 05:15:47;;;;;;;0.40;0.40;;;20.10;51.90;;;;;;5052348;28;20029;-69
2022/12/23 05:18:13;;;;;;;0.73;0.40;;;20.10;52.00;;;;;;5053127;28;20040;-69
2022/12/23 05:20:38;;;;;;;0.88;0.60;;;20.10;52.10;;;;;;5046902;28;20139;-69
2022/12/23 05:23:04;;;;;;;0.93;0.50;;;20.10;52.10;;;;;;5041589;28;20485;-68
2022/12/23 05:25:31;;;;;;;0.82;0.55;;;20.10;52.20;;;;;;5046932;28;20029;-69
2022/12/23 05:27:56;;;;;;;0.82;0.60;;;20.10;52.20;;;;;;5048448;28;20022;-69
2022/12/23 05:30:22;;;;;;;0.65;0.50;;;20.10;52.30;;;;;;5044097;28;20606;-69
2022/12/23 05:32:52;;;;;;;0.77;0.50;;;20.00;52.40;;;;;;5039964;28;20106;-69
2022/12/23 05:35:18;;;;;;;0.93;0.50;;;20.10;52.50;;;;;;5037126;28;20566;-68
2022/12/23 05:37:43;;;;;;;0.55;0.40;;;20.10;52.60;;;;;;5044218;28;20111;-68
2022/12/23 05:40:09;;;;;;;0.98;0.50;;;20.00;52.50;;;;;;5053226;28;20430;-68
2022/12/23 05:42:35;;;;;;;0.82;0.50;;;20.10;52.60;;;;;;5042794;28;20099;-68
2022/12/23 05:45:00;;;;;;;0.80;0.50;;;20.10;52.60;;;;;;5055231;28;20493;-68
2022/12/23 05:47:26;;;;;;;2.00;0.60;;;20.10;52.60;;;;;;5047589;28;20029;-69
2022/12/23 05:49:51;;;;;;;0.90;0.52;;;20.00;52.50;;;;;;5048962;28;20044;-68
2022/12/23 05:52:17;;;;;;;0.95;0.50;;;20.00;52.50;;;;;;5050852;28;20457;-69
2022/12/23 05:54:43;;;;;;;0.38;0.38;;;20.00;52.50;;;;;;5052492;28;20036;-68
2022/12/23 05:57:08;;;;;;;1.13;0.40;;;20.00;52.50;;;;;;5050968;28;20051;-68
2022/12/23 05:59:34;;;;;;;1.05;0.50;;;20.10;52.60;;;;;;5059489;28;20052;-69
2022/12/23 06:01:59;;;;;;;0.65;0.47;;;20.00;52.50;;;;;;5053293;28;20040;-69
2022/12/23 06:04:25;;;;;;;0.45;0.40;;;20.00;52.50;;;;;;5057786;28;20146;-70
2022/12/23 06:06:50;;;;;;;0.68;0.40;;;20.10;52.60;;;;;;5055924;28;20090;-69
2022/12/23 06:09:16;;;;;;;0.77;0.43;;;20.10;52.60;;;;;;5052104;28;20025;-69
2022/12/23 06:11:42;;;;;;;0.65;0.40;;;20.10;52.60;;;;;;5062219;28;20029;-69
2022/12/23 06:14:07;;;;;;;0.57;0.40;;;20.00;52.60;;;;;;5058939;28;20481;-69
2022/12/23 06:16:33;;;;;;;0.60;0.50;;;20.00;52.60;;;;;;5048127;28;20104;-68
2022/12/23 06:18:58;;;;;;;1.17;0.60;;;20.00;52.60;;;;;;5035091;28;20060;-68
2022/12/23 06:21:27;;;;;;;0.93;0.40;;;20.00;52.70;;;;;;5046291;28;20385;-70
2022/12/23 06:23:52;;;;;;;0.90;0.50;;;20.00;52.70;;;;;;5053054;28;20028;-70
2022/12/23 06:26:18;;;;;;;0.95;0.60;;;20.00;53.50;;;;;;5056884;28;20400;-70
2022/12/23 06:28:44;;;;;;;0.95;0.60;;;20.20;54.40;;;;;;5049832;28;20026;-67
2022/12/23 06:31:09;;;;;;;1.15;0.50;;;20.40;54.40;;;;;;5050940;28;20469;-69
2022/12/23 06:33:35;;;;;;;0.88;0.50;;;20.60;54.00;;;;;;5052564;28;20032;-67
2022/12/23 06:36:01;;;;;;;0.60;0.47;;;20.90;53.80;;;;;;5048850;28;20037;-69
2022/12/23 06:38:26;;;;;;;0.73;0.45;;;21.00;53.70;;;;;;5054969;28;20427;-69
2022/12/23 06:40:52;;;;;;;0.77;0.50;;;21.30;53.50;;;;;;5054727;28;20532;-68
2022/12/23 06:43:17;;;;;;;1.23;0.50;;;21.50;53.40;;;;;;5063606;28;20021;-68
2022/12/23 06:45:48;;;;;;;2.97;0.60;;;21.60;53.10;;;;;;5039972;28;20047;-69
2022/12/23 06:48:14;;;;;;;0.35;0.30;;;21.70;53.00;;;;;;5049462;28;20467;-68
2022/12/23 06:50:39;;;;;;;1.33;0.40;;;21.90;53.00;;;;;;5039502;28;20029;-68
2022/12/23 06:53:05;;;;;;;0.40;0.40;;;22.00;52.90;;;;;;5054586;28;20056;-68
2022/12/23 06:55:31;;;;;;;0.40;0.40;;;22.20;52.80;;;;;;5055006;28;20361;-68
2022/12/23 06:57:57;;;;;;;0.38;0.30;;;22.30;52.60;;;;;;5042830;28;20033;-68
2022/12/23 07:00:22;;;;;;;0.30;0.30;;;22.30;52.50;;;;;;5044125;28;20033;-68
2022/12/23 07:02:48;;;;;;;0.70;0.43;;;22.30;52.60;;;;;;5046131;28;20025;-68
2022/12/23 07:05:14;;;;;;;0.77;0.50;;;22.20;52.80;;;;;;5046255;28;20095;-69
2022/12/23 07:07:39;;;;;;;0.40;0.38;;;22.20;53.00;;;;;;5041717;28;20108;-67
2022/12/23 07:10:08;;;;;;;0.57;0.50;;;22.10;53.10;;;;;;5044945;28;20098;-68
2022/12/23 07:12:33;;;;;;;0.93;0.43;;;22.10;53.50;;;;;;5052622;28;20090;-69
2022/12/23 07:14:59;;;;;;;0.80;0.55;;;22.30;53.40;;;;;;5048832;28;20030;-68
2022/12/23 07:17:24;;;;;;;0.55;0.40;;;22.60;53.10;;;;;;5050811;28;20052;-68
2022/12/23 07:19:50;;;;;;;0.65;0.50;;;22.60;52.70;;;;;;5054643;28;20095;-68
2022/12/23 07:22:16;;;;;;;1.15;0.50;;;22.50;51.10;;;;;;5035139;28;20029;-68
2022/12/23 07:24:41;;;;;;;0.77;0.50;;;22.50;51.10;;;;;;5046268;28;20025;-67
2022/12/23 07:27:07;;;;;;;0.95;0.57;;;22.40;51.40;;;;;;5058177;28;20510;-68
2022/12/23 07:29:32;;;;;;;1.05;0.57;;;22.40;51.80;;;;;;5052916;28;20028;-69
2022/12/23 07:32:00;;;;;;;1.40;0.38;;;22.70;51.60;;;;;;5050459;28;20487;-67
2022/12/23 07:34:26;;;;;;;1.05;0.52;;;22.70;51.50;;;;;;5049788;28;20024;-68
2022/12/23 07:36:51;;;;;;;0.75;0.40;;;22.70;51.60;;;;;;5042618;28;20063;-68
2022/12/23 07:39:17;;;;;;;0.60;0.50;;;22.70;51.60;;;;;;5050401;28;20384;-69
2022/12/23 07:41:42;;;;;;;0.30;0.30;;;22.70;51.80;;;;;;5047348;28;20110;-69
2022/12/23 07:44:08;;;;;;;0.90;0.45;;;22.60;51.80;;;;;;5047924;28;20028;-69
2022/12/23 07:46:34;;;;;;;0.63;0.43;;;22.80;52.20;;;;;;5046337;28;20028;-69
2022/12/23 07:48:59;;;;;;;0.40;0.32;;;23.10;51.80;;;;;;5053386;28;20590;-69
2022/12/23 07:51:25;;;;;;;0.98;0.50;;;23.10;51.50;;;;;;5058799;28;20031;-69
2022/12/23 07:53:50;;;;;;;0.40;0.40;;;23.10;51.60;;;;;;5045846;28;20142;-69
2022/12/23 07:56:17;;;;;;;0.47;0.47;;;23.10;51.70;;;;;;5060244;28;20480;-68
2022/12/23 07:58:46;;;;;;;0.50;0.40;;;23.00;51.70;;;;;;5055495;28;20052;-69
2022/12/23 08:01:12;;;;;;;0.40;0.40;;;23.00;51.90;;;;;;5043259;28;20113;-69
2022/12/23 08:03:37;;;;;;;0.30;0.30;;;23.00;52.10;;;;;;5047322;28;20112;-69
2022/12/23 08:06:06;;;;;;;0.30;0.30;;;23.20;52.00;;;;;;5047038;28;20029;-69
2022/12/23 08:08:32;;;;;;;0.30;0.30;;;23.30;51.80;;;;;;5051201;28;20061;-68
2022/12/23 08:11:04;;;;;;;0.77;0.50;;;23.30;51.90;;;;;;5054282;28;20468;-70
2022/12/23 08:13:31;;;;;;;0.85;0.47;;;23.30;52.10;;;;;;5051462;28;20032;-70
2022/12/23 08:15:58;;;;;;;0.40;0.40;;;23.20;52.20;;;;;;5049741;28;20535;-69
2022/12/23 08:18:25;;;;;;;0.50;0.32;;;23.20;52.20;;;;;;5047355;28;20033;-69
2022/12/23 08:21:17;;;;;;;0.45;0.43;;;23.30;52.30;;;;;;5050118;28;20071;-69
2022/12/23 08:23:45;;;;;;;0.43;0.40;;;23.40;52.10;;;;;;5023553;28;20515;-69
2022/12/23 08:26:23;;;;;;;0.57;0.40;;;23.50;52.10;;;;;;5044965;28;20017;-68
2022/12/23 08:28:52;;;;;;;0.40;0.40;;;23.40;52.00;;;;;;5049616;28;20021;-69
2022/12/23 08:31:27;;;;;;;0.85;0.40;;;23.40;51.00;;;;;;5046758;28;20032;-68
2022/12/23 08:33:55;;;;;;;0.65;0.50;;;23.30;50.40;;;;;;5050293;28;20029;-68
2022/12/23 08:36:24;;;;;;;0.95;0.60;;;23.20;50.00;;;;;;5051993;28;20068;-68
2022/12/23 08:38:52;;;;;;;0.70;0.50;;;23.20;49.70;;;;;;5058586;28;20501;-68
2022/12/23 08:41:22;;;;;;;0.40;0.40;;;23.20;49.40;;;;;;5049151;28;20030;-68
2022/12/23 08:43:48;;;;;;;0.60;0.45;;;23.10;49.30;;;;;;5049486;28;20033;-69
2022/12/23 08:46:14;;;;;;;0.77;0.47;;;23.10;49.70;;;;;;5045048;28;20021;-69
2022/12/23 08:48:39;;;;;;;1.00;0.50;;;23.10;49.40;;;;;;5045496;28;20032;-69
2022/12/23 08:51:09;;;;;;;0.50;0.40;;;23.10;49.60;;;;;;5054711;28;20047;-69
2022/12/23 08:53:36;;;;;;;0.47;0.40;;;23.10;49.70;;;;;;5033176;28;20033;-69
2022/12/23 08:56:08;;;;;;;0.40;0.40;;;23.10;50.00;;;;;;5029862;28;20034;-69
2022/12/23 08:58:42;;;;;;;1.10;0.57;;;23.20;50.50;;;;;;5052397;28;20108;-68
2022/12/23 09:01:10;;;;;;;0.70;0.60;;;23.20;50.70;;;;;;5048532;28;20154;-69
2022/12/23 09:03:36;;;;;;;0.77;0.50;;;23.20;50.90;;;;;;5051775;28;20098;-69
2022/12/23 09:06:11;;;;;;;0.93;0.40;;;23.20;50.80;;;;;;5054706;28;20029;-69
2022/12/23 09:08:37;;;;;;;2.17;0.55;;;23.30;51.50;;;;;;5048165;28;20028;-69
2022/12/23 09:11:03;;;;;;;0.52;0.40;;;23.30;51.80;;;;;;5049381;28;20021;-69
2022/12/23 09:13:29;;;;;;;0.88;0.40;;;23.30;52.00;;;;;;5048646;28;20591;-68
2022/12/23 09:15:55;;;;;;;1.52;0.47;;;23.30;51.90;;;;;;5036939;28;20387;-71
2022/12/23 09:18:20;;;;;;;0.82;0.50;;;23.40;52.00;;;;;;5047962;28;20465;-68
2022/12/23 09:20:46;;;;;;;0.50;0.40;;;23.40;52.10;;;;;;5049531;28;20086;-68
2022/12/23 09:23:12;;;;;;;1.13;0.50;;;23.40;52.30;;;;;;5049021;28;20041;-68
2022/12/23 09:25:37;;;;;;;0.77;0.40;;;23.40;52.30;;;;;;5043468;28;20037;-69
2022/12/23 09:28:05;;;;;;;0.50;0.50;;;23.40;52.20;;;;;;5050363;28;20430;-68
2022/12/23 09:30:31;;;;;;;0.88;0.43;;;23.40;52.20;;;;;;5050388;28;20029;-68
2022/12/23 09:32:56;;;;;;;0.75;0.57;;;23.40;52.10;;;;;;5046342;28;20111;-68
2022/12/23 09:35:22;;;;;;;0.70;0.50;;;23.50;52.20;;;;;;5048978;28;20063;-69
2022/12/23 09:37:47;;;;;;;0.82;0.40;;;23.50;52.20;;;;;;5054121;28;20087;-68
2022/12/23 09:40:18;;;;;;;0.90;0.50;;;23.50;52.50;;;;;;5042672;28;20070;-68
2022/12/23 09:43:01;;;;;;;0.85;0.50;;;23.50;52.50;;;;;;5046252;28;20477;-67
2022/12/23 09:45:49;;;;;;;1.52;0.38;;;23.50;52.70;;;;;;5057855;28;20031;-67
2022/12/23 09:48:19;;;;;;;0.90;0.50;;;23.50;52.60;;;;;;5055238;28;20500;-67
2022/12/23 09:50:45;;;;;;;0.38;0.38;;;23.50;52.40;;;;;;5053217;28;20036;-67
2022/12/23 09:53:24;;;;;;;1.20;0.40;;;23.50;52.60;;;;;;5044064;28;20032;-68
2022/12/23 09:56:06;;;;;;;0.93;0.40;;;23.50;52.80;;;;;;5047143;28;20507;-68
2022/12/23 09:59:04;;;;;;;0.52;0.40;;;23.60;52.80;;;;;;5059540;28;20033;-67
2022/12/23 10:02:07;;;;;;;0.57;0.30;;;23.60;52.50;;;;;;5056785;28;20047;-67
2022/12/23 10:04:35;;;;;;;0.40;0.40;;;23.60;52.50;;;;;;5004459;28;20369;-68
2022/12/23 10:07:04;;;;;;;0.40;0.40;;;23.60;52.60;;;;;;5050739;28;20025;-68
2022/12/23 10:09:37;;;;;;;0.40;0.30;;;23.70;52.80;;;;;;5052573;28;20124;-68
2022/12/23 10:12:14;;;;;;;0.68;0.47;;;23.70;52.90;;;;;;5057204;28;20031;-68
2022/12/23 10:14:41;;;;;;;0.43;0.40;;;23.70;52.80;;;;;;5055743;28;20053;-67
2022/12/23 10:17:27;;;;;;;1.15;0.60;;;23.70;53.00;;;;;;5050618;28;20029;-68
2022/12/23 10:19:58;;;;;;;1.23;0.77;;;23.70;51.00;;;;;;5049218;28;20433;-68
2022/12/23 10:22:41;;;;;;;1.83;0.52;;;23.70;49.80;;;;;;5052172;28;20133;-69
2022/12/23 10:25:20;;;;;;;0.82;0.50;;;23.60;48.90;;;;;;5055084;28;20433;-69
2022/12/23 10:27:46;;;;;;;0.50;0.50;;;23.60;49.30;;;;;;5044884;28;20055;-67
2022/12/23 10:30:18;;;;;;;0.68;0.40;;;23.60;49.70;;;;;;5060415;28;20203;-67
2022/12/23 10:32:52;;;;;;;1.40;0.40;;;23.60;50.00;;;;;;5049890;28;20376;-68
2022/12/23 10:35:59;;;;;;;0.45;0.40;;;23.60;50.30;;;;;;5051744;28;20111;-67
2022/12/23 10:38:40;;;;;;;0.30;0.30;;;23.60;50.40;;;;;;4971041;28;20085;-69
2022/12/23 10:41:47;;;;;;;0.30;0.30;;;23.60;50.80;;;;;;5048362;28;20554;-69
2022/12/23 10:44:54;;;;;;;0.45;0.40;;;23.60;51.10;;;;;;5036752;28;20524;-68
2022/12/23 10:47:40;;;;;;;0.52;0.40;;;23.70;51.30;;;;;;5058028;28;20028;-68
2022/12/23 10:50:30;;;;;;;0.50;0.50;;;23.70;51.40;;;;;;4996450;28;20037;-68
2022/12/23 10:52:59;;;;;;;0.40;0.40;;;23.70;51.40;;;;;;5051347;28;20488;-70
2022/12/23 10:55:30;;;;;;;0.47;0.40;;;23.70;51.50;;;;;;5057509;28;20345;-69
2022/12/23 10:58:04;;;;;;;0.70;0.50;;;23.80;51.60;;;;;;5036217;28;20029;-70
2022/12/23 11:00:30;;;;;;;0.50;0.43;;;23.80;51.70;;;;;;5048804;28;20029;-70
2022/12/23 11:03:06;;;;;;;1.08;0.52;;;23.80;51.80;;;;;;5050350;28;20494;-70
2022/12/23 11:05:33;;;;;;;0.80;0.50;;;23.80;51.10;;;;;;5051494;28;20116;-70
2022/12/23 11:07:59;;;;;;;1.23;0.70;;;23.80;48.40;;;;;;5052614;28;20450;-70
2022/12/23 11:10:31;;;;;;;0.77;0.50;;;23.70;47.90;;;;;;5051801;28;20025;-69
2022/12/23 11:12:57;;;;;;;0.50;0.50;;;23.60;47.70;;;;;;5051689;28;20396;-71
2022/12/23 11:15:28;;;;;;;0.52;0.50;;;23.60;47.80;;;;;;5055105;28;20029;-69
2022/12/23 11:18:18;;;;;;;0.40;0.40;;;23.60;48.00;;;;;;5048959;28;20491;-69
2022/12/23 11:21:00;;;;;;;1.45;0.52;;;23.70;48.00;;;;;;5034643;28;20396;-70
2022/12/23 11:23:29;;;;;;;1.20;0.60;;;23.70;47.90;;;;;;5054744;28;20089;-69
2022/12/23 11:26:03;;;;;;;1.00;0.60;;;23.70;47.70;;;;;;5055170;28;20028;-69
2022/12/23 11:28:31;;;;;;;1.25;0.60;;;23.70;47.60;;;;;;5057992;28;20570;-69
2022/12/23 11:31:04;;;;;;;2.17;0.60;;;23.60;47.60;;;;;;5060049;28;20032;-69
2022/12/23 11:33:36;;;;;;;0.52;0.45;;;23.60;47.60;;;;;;5050001;28;20028;-70
2022/12/23 11:36:37;;;;;;;1.23;0.70;;;23.60;47.60;;;;;;5043992;28;20476;-69
2022/12/23 11:39:08;;;;;;;1.02;0.60;;;23.50;47.70;;;;;;4954967;28;20427;-70
2022/12/23 11:41:36;;;;;;;0.82;0.60;;;23.50;47.70;;;;;;5039582;28;20043;-69
2022/12/23 11:44:16;;;;;;;1.48;0.50;;;23.50;47.80;;;;;;5057444;28;20025;-70
2022/12/23 11:46:41;;;;;;;0.77;0.50;;;23.50;47.80;;;;;;5051083;28;20080;-71
2022/12/23 11:49:32;;;;;;;0.90;0.60;;;23.40;47.80;;;;;;5048970;28;20021;-70
2022/12/23 11:52:04;;;;;;;0.75;0.60;;;23.50;48.00;;;;;;5044564;28;20036;-69
2022/12/23 11:54:31;;;;;;;0.60;0.50;;;23.40;48.00;;;;;;5058243;28;20027;-70
2022/12/23 11:56:59;;;;;;;5.93;0.70;;;23.40;48.00;;;;;;5053322;28;20056;-66
2022/12/23 11:59:32;;;;;;;0.57;0.50;;;23.40;48.10;;;;;;5064637;28;20037;-66
2022/12/23 12:02:19;;;;;;;1.77;0.80;;;23.30;48.10;;;;;;5053382;28;20053;-66
2022/12/23 12:04:54;;;;;;;1.50;0.63;;;23.40;48.20;;;;;;5046215;28;20021;-66
2022/12/23 12:07:20;;;;;;;0.95;0.60;;;23.30;48.10;;;;;;5046271;28;20030;-65
2022/12/23 12:09:46;;;;;;;0.80;0.52;;;23.40;48.30;;;;;;5053326;28;20025;-66
2022/12/23 12:12:15;;;;;;;1.38;0.75;;;23.30;48.30;;;;;;5045565;28;20480;-67
2022/12/23 12:14:44;;;;;;;1.05;0.70;;;23.30;48.30;;;;;;5058335;28;20082;-66
2022/12/23 12:17:41;;;;;;;0.57;0.50;;;23.30;48.30;;;;;;5048976;28;20086;-66
2022/12/23 12:20:43;;;;;;;0.88;0.60;;;23.30;48.40;;;;;;5041369;28;20045;-66
2022/12/23 12:23:21;;;;;;;0.82;0.50;;;23.30;48.50;;;;;;5048051;28;20076;-67
2022/12/23 12:25:52;;;;;;;0.65;0.60;;;23.30;48.60;;;;;;5043251;28;20025;-67
2022/12/23 12:28:31;;;;;;;0.73;0.70;;;23.20;48.50;;;;;;5052443;28;20020;-67
2022/12/23 12:31:26;;;;;;;1.33;0.60;;;23.20;48.50;;;;;;5025792;28;20063;-67
2022/12/23 12:34:14;;;;;;;0.95;0.65;;;23.20;48.60;;;;;;5013951;28;20163;-66
2022/12/23 12:37:01;;;;;;;0.95;0.60;;;23.20;48.60;;;;;;5054227;28;20103;-67
2022/12/23 12:39:32;;;;;;;1.10;0.60;;;23.20;48.70;;;;;;5060157;28;20029;-66
2022/12/23 12:42:25;;;;;;;0.68;0.60;;;23.20;48.70;;;;;;5056499;28;20131;-67
2022/12/23 12:45:01;;;;;;;0.68;0.50;;;23.20;48.70;;;;;;5051595;28;20437;-66
2022/12/23 12:47:41;;;;;;;0.82;0.43;;;23.20;48.70;;;;;;5048196;28;20033;-67
2022/12/23 12:50:16;;;;;;;3.72;0.68;;;23.20;48.70;;;;;;5053302;28;20025;-67
2022/12/23 12:52:42;;;;;;;0.55;0.50;;;23.20;48.80;;;;;;5050225;28;20087;-66
2022/12/23 12:55:30;;;;;;;2.28;0.80;;;23.20;48.90;;;;;;5046433;28;20088;-66
2022/12/23 12:57:56;;;;;;;0.95;0.52;;;23.20;48.90;;;;;;5045962;28;20515;-66
2022/12/23 13:00:23;;;;;;;1.20;0.60;;;23.10;49.00;;;;;;5052554;28;20029;-66
2022/12/23 13:03:05;;;;;;;1.58;0.75;;;23.20;48.90;;;;;;5055427;28;20393;-67
2022/12/23 13:05:51;;;;;;;1.33;0.70;;;23.10;48.80;;;;;;5054223;28;20151;-67
2022/12/23 13:08:55;;;;;;;1.35;0.60;;;23.10;48.90;;;;;;5047154;28;20031;-67
2022/12/23 13:11:42;;;;;;;1.30;0.63;;;23.10;48.90;;;;;;4962315;28;20037;-68
2022/12/23 13:14:34;;;;;;;1.55;0.80;;;23.10;48.90;;;;;;4966449;28;20034;-66
2022/12/23 13:17:02;;;;;;;1.10;0.70;;;23.10;49.00;;;;;;5031522;28;20507;-65
2022/12/23 13:19:44;;;;;;;1.00;0.65;;;23.10;49.00;;;;;;5059583;28;20340;-66
2022/12/23 13:22:20;;;;;;;1.00;0.60;;;23.10;49.10;;;;;;5055968;28;20058;-66
2022/12/23 13:24:53;;;;;;;1.08;0.60;;;23.10;49.10;;;;;;5050838;28;20024;-66
2022/12/23 13:27:32;;;;;;;1.05;0.60;;;23.00;49.10;;;;;;5046979;28;20028;-66
2022/12/23 13:30:18;;;;;;;1.30;0.77;;;23.00;49.10;;;;;;5037999;28;20021;-66
2022/12/23 13:33:19;;;;;;;0.75;0.60;;;23.00;49.20;;;;;;5053626;28;20361;-66
2022/12/23 13:35:55;;;;;;;1.70;0.65;;;23.10;49.20;;;;;;5059759;28;20099;-66
2022/12/23 13:38:43;;;;;;;1.60;0.80;;;23.00;49.20;;;;;;5054621;28;20492;-65